Time;durP1;ratioP1;P1;durP2;ratioP2;P2;SDS_P1;SDS_P2;PMS_P1;PMS_P2;Temp;Humidity;BMP_temperature;BMP_pressure;BME280_temperature;BME280_humidity;BME280_pressure;Samples;Min_cycle;Max_cycle;Signal;HPM_P1;HPM_P2
2021/12/09 00:00:02;;;;;;;5.63;1.05;;;19.00;54.90;;;;;;5054464;28;20406;-68
2021/12/09 00:02:30;;;;;;;4.07;0.70;;;19.00;54.90;;;;;;5054360;28;20055;-68
2021/12/09 00:04:57;;;;;;;1.40;0.73;;;19.00;54.90;;;;;;5052669;28;20021;-68
2021/12/09 00:07:23;;;;;;;2.88;0.73;;;19.00;55.00;;;;;;5052484;28;20056;-68
2021/12/09 00:09:50;;;;;;;3.25;0.70;;;19.00;55.00;;;;;;5051178;28;20504;-68
2021/12/09 00:12:16;;;;;;;2.78;0.60;;;19.00;55.00;;;;;;5052103;28;20477;-68
2021/12/09 00:14:42;;;;;;;3.80;1.20;;;19.00;55.00;;;;;;5051081;28;20017;-68
2021/12/09 00:17:08;;;;;;;2.97;0.80;;;19.00;55.00;;;;;;5052360;28;20111;-68
2021/12/09 00:19:34;;;;;;;2.55;0.80;;;19.00;54.90;;;;;;5052506;28;20032;-68
2021/12/09 00:21:59;;;;;;;3.38;1.20;;;19.00;54.90;;;;;;5052674;28;20021;-68
2021/12/09 00:24:25;;;;;;;1.23;0.73;;;18.90;54.90;;;;;;5053908;28;20407;-68
2021/12/09 00:26:51;;;;;;;1.45;0.52;;;18.90;54.90;;;;;;5052562;28;20095;-68
2021/12/09 00:29:17;;;;;;;3.63;0.88;;;18.90;54.90;;;;;;5052552;28;20060;-68
2021/12/09 00:31:43;;;;;;;2.85;1.00;;;18.90;54.90;;;;;;5052815;28;20029;-67
2021/12/09 00:34:09;;;;;;;1.63;0.90;;;18.90;55.00;;;;;;5052828;28;20075;-68
2021/12/09 00:36:41;;;;;;;2.47;0.80;;;18.90;55.00;;;;;;5052955;28;20037;-68
2021/12/09 00:39:07;;;;;;;;;;;18.90;55.00;;;;;;5054118;28;20121;-68
2021/12/09 00:41:33;;;;;;;3.55;0.85;;;18.80;55.20;;;;;;5053698;28;20314;-68
2021/12/09 00:43:59;;;;;;;2.70;0.68;;;18.80;55.30;;;;;;5052425;28;20040;-68
2021/12/09 00:46:24;;;;;;;1.75;0.73;;;18.80;55.30;;;;;;5053710;28;20551;-68
2021/12/09 00:48:50;;;;;;;1.92;0.90;;;18.80;55.20;;;;;;5053584;28;20104;-68
2021/12/09 00:51:15;;;;;;;2.58;0.60;;;18.80;56.20;;;;;;5053556;28;20025;-67
2021/12/09 00:53:41;;;;;;;2.08;0.65;;;18.80;55.20;;;;;;5053499;28;20029;-68
2021/12/09 00:56:09;;;;;;;2.38;1.05;;;18.80;55.20;;;;;;5052240;28;20017;-68
2021/12/09 00:58:34;;;;;;;1.00;0.60;;;18.80;55.20;;;;;;5052236;28;20041;-68
2021/12/09 01:01:00;;;;;;;1.13;0.68;;;18.80;55.30;;;;;;5053361;28;20024;-68
2021/12/09 01:03:26;;;;;;;2.45;0.60;;;18.80;55.30;;;;;;5052324;28;20033;-68
2021/12/09 01:05:51;;;;;;;1.42;0.63;;;18.80;55.20;;;;;;5053265;28;20040;-68
2021/12/09 01:08:17;;;;;;;4.35;0.80;;;18.80;55.30;;;;;;5051764;28;20028;-68
2021/12/09 01:10:43;;;;;;;5.53;0.68;;;18.80;55.30;;;;;;5053015;28;20036;-68
2021/12/09 01:13:08;;;;;;;1.90;0.73;;;18.80;55.20;;;;;;5053067;28;20478;-68
2021/12/09 01:15:34;;;;;;;1.33;0.80;;;18.80;55.30;;;;;;5053375;28;20020;-68
2021/12/09 01:18:00;;;;;;;2.25;0.90;;;18.80;55.30;;;;;;5051778;28;20118;-68
2021/12/09 01:20:26;;;;;;;2.83;0.50;;;18.80;55.30;;;;;;5053098;28;20029;-68
2021/12/09 01:22:54;;;;;;;1.38;0.60;;;18.80;55.30;;;;;;5052668;28;20048;-68
2021/12/09 01:25:20;;;;;;;1.60;0.73;;;18.80;55.30;;;;;;5035076;28;20110;-68
2021/12/09 01:27:47;;;;;;;2.33;0.65;;;18.80;56.30;;;;;;5051559;28;20056;-68
2021/12/09 01:30:16;;;;;;;1.98;0.50;;;18.80;55.40;;;;;;5052974;28;20036;-68
2021/12/09 01:32:48;;;;;;;3.67;1.17;;;18.80;55.30;;;;;;5052994;28;20469;-68
2021/12/09 01:35:14;;;;;;;2.90;0.90;;;18.80;55.40;;;;;;5037483;28;20021;-68
2021/12/09 01:37:40;;;;;;;1.27;0.60;;;18.80;55.40;;;;;;5036564;28;20075;-68
2021/12/09 01:40:07;;;;;;;3.72;0.80;;;18.70;55.40;;;;;;5035083;28;20021;-68
2021/12/09 01:42:33;;;;;;;1.52;0.60;;;18.70;55.40;;;;;;5013335;28;20478;-68
2021/12/09 01:44:58;;;;;;;2.17;0.80;;;18.70;55.40;;;;;;5033553;28;20029;-68
2021/12/09 01:47:24;;;;;;;3.97;0.82;;;18.70;55.50;;;;;;5033994;28;20399;-68
2021/12/09 01:49:50;;;;;;;2.13;0.57;;;18.70;55.60;;;;;;5040457;28;20021;-67
2021/12/09 01:52:15;;;;;;;1.92;0.93;;;18.80;55.70;;;;;;5051917;28;20032;-67
2021/12/09 01:54:41;;;;;;;1.63;0.55;;;18.80;55.60;;;;;;5045018;28;20021;-67
2021/12/09 01:57:07;;;;;;;2.40;0.65;;;18.70;55.50;;;;;;5042586;28;20013;-67
2021/12/09 01:59:33;;;;;;;1.48;0.70;;;18.70;55.60;;;;;;5038535;28;20100;-67
2021/12/09 02:01:58;;;;;;;2.95;0.68;;;18.70;55.60;;;;;;5048815;28;20025;-68
2021/12/09 02:04:24;;;;;;;2.28;1.00;;;18.70;55.60;;;;;;5035278;28;20087;-67
2021/12/09 02:06:50;;;;;;;1.30;0.70;;;18.70;55.70;;;;;;5051337;28;20041;-67
2021/12/09 02:09:15;;;;;;;1.08;0.52;;;18.70;55.60;;;;;;5051438;28;20100;-67
2021/12/09 02:11:41;;;;;;;1.70;0.82;;;18.70;55.70;;;;;;5051960;28;20505;-67
2021/12/09 02:14:07;;;;;;;1.92;0.60;;;18.70;55.60;;;;;;5049917;28;20021;-67
2021/12/09 02:16:33;;;;;;;1.13;0.60;;;18.70;55.70;;;;;;5051037;28;20017;-68
2021/12/09 02:18:59;;;;;;;1.75;0.70;;;18.70;55.70;;;;;;5052012;28;20500;-67
2021/12/09 02:21:30;;;;;;;1.63;0.60;;;18.70;55.70;;;;;;5034575;28;20135;-67
2021/12/09 02:24:06;;;;;;;1.33;0.68;;;18.70;55.80;;;;;;5050328;28;20049;-67
2021/12/09 02:26:37;;;;;;;0.95;0.55;;;18.70;55.80;;;;;;5052121;28;20013;-68
2021/12/09 02:29:04;;;;;;;1.20;0.70;;;18.70;55.90;;;;;;5034770;28;20020;-68
2021/12/09 02:31:29;;;;;;;3.70;0.77;;;18.70;55.90;;;;;;5052181;28;20021;-68
2021/12/09 02:33:55;;;;;;;4.55;0.60;;;18.70;55.80;;;;;;5052038;28;20029;-68
2021/12/09 02:36:21;;;;;;;4.78;0.68;;;18.60;55.80;;;;;;5051863;28;20021;-68
2021/12/09 02:38:49;;;;;;;1.70;0.60;;;18.60;55.80;;;;;;5051760;28;20032;-67
2021/12/09 02:41:18;;;;;;;3.38;0.75;;;18.60;55.80;;;;;;5050721;28;20029;-67
2021/12/09 02:43:45;;;;;;;1.15;0.70;;;18.70;55.90;;;;;;5051936;28;20048;-68
2021/12/09 02:46:11;;;;;;;3.22;0.75;;;18.60;55.90;;;;;;5050781;28;20083;-68
2021/12/09 02:48:37;;;;;;;1.85;0.80;;;18.60;55.90;;;;;;5034196;28;20498;-68
2021/12/09 02:51:04;;;;;;;4.90;1.45;;;18.60;55.90;;;;;;5051358;28;20070;-68
2021/12/09 02:53:29;;;;;;;0.90;0.60;;;18.60;56.00;;;;;;5050908;28;20075;-68
2021/12/09 02:55:55;;;;;;;1.83;0.82;;;18.60;56.00;;;;;;5051740;28;20402;-68
2021/12/09 02:58:21;;;;;;;2.28;0.60;;;18.60;56.00;;;;;;5052026;28;20025;-68
2021/12/09 03:01:14;;;;;;;1.55;0.60;;;18.60;56.00;;;;;;5053344;28;20021;-68
2021/12/09 03:03:54;;;;;;;1.08;0.60;;;18.60;56.10;;;;;;5055799;28;20026;-67
2021/12/09 03:06:22;;;;;;;3.17;0.80;;;18.60;56.10;;;;;;5055233;28;20421;-68
2021/12/09 03:08:48;;;;;;;2.08;1.05;;;18.60;56.10;;;;;;5054200;28;20096;-67
2021/12/09 03:11:16;;;;;;;3.03;0.70;;;18.60;56.10;;;;;;5055349;28;20017;-68
2021/12/09 03:13:43;;;;;;;0.98;0.50;;;18.60;56.10;;;;;;5054323;28;20378;-67
2021/12/09 03:16:08;;;;;;;2.50;0.60;;;18.60;56.10;;;;;;5054282;28;20017;-67
2021/12/09 03:18:39;;;;;;;1.42;0.43;;;18.60;56.10;;;;;;5054247;28;20547;-67
2021/12/09 03:21:32;;;;;;;1.70;0.88;;;18.50;56.10;;;;;;5054968;28;20025;-68
2021/12/09 03:23:58;;;;;;;1.08;0.60;;;18.60;56.20;;;;;;5053524;28;20462;-67
2021/12/09 03:26:29;;;;;;;2.63;0.57;;;18.50;56.20;;;;;;5054099;28;20028;-68
2021/12/09 03:29:00;;;;;;;1.17;0.75;;;18.50;56.20;;;;;;5054193;28;20081;-67
2021/12/09 03:31:26;;;;;;;1.20;0.50;;;18.50;56.20;;;;;;5055262;28;20497;-67
2021/12/09 03:33:52;;;;;;;0.70;0.40;;;18.50;56.20;;;;;;5055055;28;20032;-67
2021/12/09 03:36:18;;;;;;;2.58;0.52;;;18.50;56.20;;;;;;5053574;28;20025;-68
2021/12/09 03:38:43;;;;;;;0.95;0.50;;;18.50;56.20;;;;;;5055196;28;20029;-68
2021/12/09 03:41:09;;;;;;;0.60;0.38;;;18.50;56.20;;;;;;5053837;28;20051;-68
2021/12/09 03:43:35;;;;;;;1.80;0.80;;;18.50;56.30;;;;;;5053911;28;20406;-68
2021/12/09 03:46:00;;;;;;;1.08;0.50;;;18.50;56.30;;;;;;5053657;28;20053;-67
2021/12/09 03:48:27;;;;;;;0.70;0.50;;;18.50;56.30;;;;;;5054603;28;20028;-67
2021/12/09 03:50:53;;;;;;;1.05;0.57;;;18.50;56.30;;;;;;5054475;28;20014;-67
2021/12/09 03:53:18;;;;;;;0.90;0.47;;;18.50;56.80;;;;;;5036941;28;20123;-67
2021/12/09 03:55:44;;;;;;;0.52;0.35;;;18.50;56.30;;;;;;5053729;28;20029;-68
2021/12/09 03:58:10;;;;;;;1.25;0.65;;;18.50;56.40;;;;;;5053498;28;20028;-67
2021/12/09 04:00:35;;;;;;;0.73;0.50;;;18.50;56.40;;;;;;5054634;28;20048;-68
2021/12/09 04:03:01;;;;;;;1.48;0.50;;;18.50;56.40;;;;;;5053467;28;20037;-68
2021/12/09 04:05:27;;;;;;;1.77;0.38;;;18.50;57.40;;;;;;5053069;28;20096;-68
2021/12/09 04:07:53;;;;;;;2.38;0.50;;;18.50;56.40;;;;;;5036667;28;20025;-68
2021/12/09 04:10:19;;;;;;;0.80;0.57;;;18.50;56.40;;;;;;5054078;28;20025;-68
2021/12/09 04:12:45;;;;;;;1.45;0.40;;;18.50;56.50;;;;;;5053017;28;20032;-67
2021/12/09 04:15:11;;;;;;;1.42;0.50;;;18.50;56.50;;;;;;5052917;28;20429;-68
2021/12/09 04:17:36;;;;;;;1.30;0.52;;;18.50;56.50;;;;;;5054385;28;20070;-68
2021/12/09 04:20:04;;;;;;;1.33;0.43;;;18.50;56.50;;;;;;5053772;28;20096;-68
2021/12/09 04:22:29;;;;;;;0.88;0.40;;;18.50;56.50;;;;;;5036482;28;20020;-68
2021/12/09 04:24:55;;;;;;;1.45;0.45;;;18.50;56.50;;;;;;5054171;28;20055;-68
2021/12/09 04:27:21;;;;;;;0.85;0.40;;;18.50;56.50;;;;;;5052755;28;20442;-68
2021/12/09 04:29:46;;;;;;;0.90;0.60;;;18.50;56.50;;;;;;5053025;28;20060;-67
2021/12/09 04:32:12;;;;;;;0.93;0.43;;;18.50;56.60;;;;;;5053917;28;20049;-68
2021/12/09 04:34:37;;;;;;;0.82;0.45;;;18.50;56.60;;;;;;5053696;28;20463;-67
2021/12/09 04:37:03;;;;;;;0.90;0.60;;;18.50;56.60;;;;;;5052961;28;20021;-67
2021/12/09 04:39:29;;;;;;;2.00;0.65;;;18.50;56.70;;;;;;5052680;28;20084;-67
2021/12/09 04:41:55;;;;;;;1.40;0.50;;;18.50;56.70;;;;;;5052754;28;20036;-68
2021/12/09 04:44:21;;;;;;;1.30;0.50;;;18.50;56.60;;;;;;5052451;28;20024;-68
2021/12/09 04:46:47;;;;;;;2.40;0.60;;;18.50;56.70;;;;;;5036322;28;20489;-68
2021/12/09 04:49:13;;;;;;;0.35;0.35;;;18.50;56.70;;;;;;5053187;28;20021;-67
2021/12/09 04:51:38;;;;;;;0.93;0.30;;;18.50;56.70;;;;;;5053584;28;20021;-68
2021/12/09 04:54:04;;;;;;;1.55;0.77;;;18.50;56.70;;;;;;5053721;28;20370;-67
2021/12/09 04:56:30;;;;;;;0.60;0.40;;;18.50;56.80;;;;;;5052221;28;20040;-68
2021/12/09 04:58:56;;;;;;;5.30;0.40;;;18.50;56.70;;;;;;5053750;28;20035;-68
2021/12/09 05:01:21;;;;;;;0.93;0.40;;;18.50;56.80;;;;;;5053298;28;20029;-67
2021/12/09 05:03:48;;;;;;;0.80;0.50;;;18.50;56.80;;;;;;5052060;28;20517;-68
2021/12/09 05:06:15;;;;;;;0.82;0.40;;;18.50;56.80;;;;;;5052170;28;20021;-68
2021/12/09 05:08:45;;;;;;;1.50;0.32;;;18.50;56.80;;;;;;5052002;28;20025;-67
2021/12/09 05:11:17;;;;;;;0.40;0.30;;;18.50;56.80;;;;;;5053174;28;20108;-68
2021/12/09 05:13:42;;;;;;;2.08;0.47;;;18.50;56.90;;;;;;5053242;28;20021;-68
2021/12/09 05:16:09;;;;;;;1.70;0.60;;;18.40;56.80;;;;;;5052904;28;20388;-68
2021/12/09 05:18:36;;;;;;;2.83;0.50;;;18.50;56.90;;;;;;5035662;28;20033;-68
2021/12/09 05:21:06;;;;;;;0.63;0.45;;;18.40;56.90;;;;;;5053045;28;20013;-68
2021/12/09 05:23:32;;;;;;;0.75;0.40;;;18.50;56.90;;;;;;5051266;28;20049;-68
2021/12/09 05:25:58;;;;;;;0.90;0.63;;;18.40;56.90;;;;;;5052898;28;20032;-68
2021/12/09 05:28:32;;;;;;;0.85;0.47;;;18.40;56.90;;;;;;5051532;28;20033;-68
2021/12/09 05:33:43;;;;;;;0.57;0.40;;;18.40;57.00;;;;;;5052030;28;20098;-68
2021/12/09 05:36:08;;;;;;;0.80;0.40;;;18.40;57.00;;;;;;5052842;28;20478;-68
2021/12/09 05:38:34;;;;;;;2.35;0.47;;;18.40;57.00;;;;;;5052915;28;20082;-68
2021/12/09 05:41:00;;;;;;;0.90;0.40;;;18.40;57.00;;;;;;5051668;28;20267;-68
2021/12/09 05:43:26;;;;;;;1.25;0.50;;;18.40;57.00;;;;;;5052477;28;20033;-67
2021/12/09 05:45:51;;;;;;;0.98;0.40;;;18.40;57.00;;;;;;5052417;28;20494;-68
2021/12/09 05:48:17;;;;;;;0.63;0.57;;;18.40;57.10;;;;;;5052561;28;20067;-68
2021/12/09 05:50:43;;;;;;;0.47;0.40;;;18.40;57.00;;;;;;5034917;28;20471;-68
2021/12/09 05:53:08;;;;;;;1.30;0.43;;;18.40;57.10;;;;;;5052466;28;20021;-68
2021/12/09 05:55:34;;;;;;;1.05;0.47;;;18.40;57.00;;;;;;5051399;28;20024;-68
2021/12/09 05:58:00;;;;;;;2.10;1.00;;;18.40;57.10;;;;;;5052568;28;20564;-68
2021/12/09 06:00:26;;;;;;;0.80;0.47;;;18.40;57.20;;;;;;5050850;28;20029;-68
2021/12/09 06:02:51;;;;;;;1.20;0.50;;;18.40;57.10;;;;;;5051436;28;20142;-68
2021/12/09 06:05:18;;;;;;;1.35;0.57;;;18.40;57.20;;;;;;5051059;28;20037;-68
2021/12/09 06:07:45;;;;;;;0.63;0.40;;;18.40;57.20;;;;;;5051157;28;20033;-68
2021/12/09 06:10:10;;;;;;;0.98;0.60;;;18.40;57.20;;;;;;5052079;28;20047;-68
2021/12/09 06:12:37;;;;;;;0.77;0.30;;;18.40;57.20;;;;;;5052159;28;20108;-68
2021/12/09 06:15:03;;;;;;;0.60;0.40;;;18.40;57.20;;;;;;5051993;28;20018;-68
2021/12/09 06:17:29;;;;;;;1.95;0.40;;;18.40;57.20;;;;;;5051110;28;20028;-68
2021/12/09 06:19:55;;;;;;;1.00;0.40;;;18.40;57.20;;;;;;5052401;28;20021;-67
2021/12/09 06:22:20;;;;;;;1.60;0.30;;;18.40;57.30;;;;;;5052094;28;20019;-68
2021/12/09 06:24:46;;;;;;;0.77;0.50;;;18.40;57.30;;;;;;5051996;28;20498;-68
2021/12/09 06:27:13;;;;;;;0.68;0.40;;;18.40;57.30;;;;;;5052046;28;20025;-68
2021/12/09 06:29:38;;;;;;;2.58;0.52;;;18.40;57.30;;;;;;5051771;28;20025;-67
2021/12/09 06:32:04;;;;;;;0.82;0.35;;;18.40;57.30;;;;;;5034250;28;20025;-67
2021/12/09 06:34:30;;;;;;;0.30;0.30;;;18.40;57.30;;;;;;5045217;28;20502;-67
2021/12/09 06:36:56;;;;;;;0.55;0.30;;;18.40;57.30;;;;;;5034989;28;20022;-67
2021/12/09 06:39:21;;;;;;;0.40;0.35;;;18.40;57.40;;;;;;5035785;28;20024;-68
2021/12/09 06:41:47;;;;;;;0.40;0.40;;;18.40;57.40;;;;;;5035484;28;20022;-68
2021/12/09 06:44:13;;;;;;;0.75;0.40;;;18.40;57.40;;;;;;5034058;28;20025;-68
2021/12/09 06:46:38;;;;;;;1.02;0.40;;;18.40;57.40;;;;;;5034105;28;20022;-72
2021/12/09 06:49:04;;;;;;;1.17;0.50;;;18.40;57.60;;;;;;5034925;28;20057;-68
2021/12/09 06:51:30;;;;;;;0.25;0.25;;;18.40;57.60;;;;;;5047322;28;20024;-68
2021/12/09 06:53:56;;;;;;;0.55;0.40;;;18.40;57.50;;;;;;5037689;28;20029;-68
2021/12/09 06:56:22;;;;;;;0.70;0.30;;;18.50;57.50;;;;;;5038696;28;20399;-68
2021/12/09 06:58:48;;;;;;;1.73;0.57;;;18.50;57.50;;;;;;5050138;28;20013;-68
2021/12/09 07:01:14;;;;;;;0.75;0.30;;;18.40;57.40;;;;;;5043414;28;20025;-68
2021/12/09 07:03:40;;;;;;;0.38;0.30;;;18.40;57.30;;;;;;5042994;28;20032;-68
2021/12/09 07:06:06;;;;;;;0.32;0.20;;;18.40;57.30;;;;;;5050387;28;20029;-68
2021/12/09 07:08:38;;;;;;;1.30;0.40;;;18.40;57.40;;;;;;5044489;28;20108;-69
2021/12/09 07:11:03;;;;;;;2.75;0.30;;;18.50;57.30;;;;;;5048512;28;20036;-68
2021/12/09 07:13:30;;;;;;;0.90;0.50;;;18.40;57.30;;;;;;5026368;28;20386;-68
2021/12/09 07:16:00;;;;;;;0.60;0.32;;;18.40;57.20;;;;;;5054477;28;20036;-68
2021/12/09 07:18:26;;;;;;;0.40;0.40;;;18.40;57.20;;;;;;5036574;28;20402;-68
2021/12/09 07:20:52;;;;;;;0.68;0.40;;;18.40;57.20;;;;;;5049029;28;20021;-68
2021/12/09 07:23:18;;;;;;;0.43;0.40;;;18.50;57.20;;;;;;5041287;28;20052;-68
2021/12/09 07:25:44;;;;;;;0.40;0.40;;;18.50;57.30;;;;;;5045183;28;20410;-68
2021/12/09 07:28:09;;;;;;;0.55;0.28;;;18.40;57.20;;;;;;5052612;28;20100;-68
2021/12/09 07:30:35;;;;;;;0.63;0.30;;;18.50;57.20;;;;;;5037441;28;20025;-68
2021/12/09 07:33:01;;;;;;;0.68;0.40;;;18.40;57.10;;;;;;5054455;28;20072;-68
2021/12/09 07:35:30;;;;;;;0.68;0.47;;;18.50;57.10;;;;;;5044281;28;20033;-68
2021/12/09 07:38:00;;;;;;;1.02;0.40;;;18.50;57.10;;;;;;5048084;28;20509;-68
2021/12/09 07:40:25;;;;;;;2.00;0.40;;;18.50;57.10;;;;;;5042661;28;20028;-68
2021/12/09 07:42:51;;;;;;;1.05;0.40;;;18.50;57.10;;;;;;5023863;28;20032;-68
2021/12/09 07:45:17;;;;;;;0.43;0.40;;;18.50;57.00;;;;;;5048620;28;20076;-69
2021/12/09 07:47:43;;;;;;;1.90;0.50;;;18.50;57.00;;;;;;5032998;28;20061;-69
2021/12/09 07:50:13;;;;;;;6.00;0.88;;;18.50;57.00;;;;;;5034904;28;20533;-70
2021/12/09 07:52:40;;;;;;;13.60;1.45;;;18.50;57.00;;;;;;5052562;28;20108;-69
2021/12/09 07:55:06;;;;;;;6.18;1.10;;;18.50;57.10;;;;;;5052856;28;20387;-69
2021/12/09 07:57:33;;;;;;;5.95;1.20;;;18.50;57.10;;;;;;5053428;28;20037;-69
2021/12/09 07:59:59;;;;;;;5.18;1.80;;;18.50;57.00;;;;;;5053804;28;20493;-69
2021/12/09 08:02:25;;;;;;;4.78;1.63;;;18.60;57.10;;;;;;5052393;28;20070;-69
2021/12/09 08:04:50;;;;;;;4.20;1.50;;;18.60;57.10;;;;;;5054097;28;20107;-70
2021/12/09 08:07:16;;;;;;;4.35;1.20;;;18.60;57.00;;;;;;5053381;28;20128;-69
2021/12/09 08:09:42;;;;;;;4.47;1.55;;;18.60;57.00;;;;;;5052861;28;20764;-69
2021/12/09 08:12:07;;;;;;;5.32;1.40;;;18.60;57.00;;;;;;5054212;28;20423;-69
2021/12/09 08:14:33;;;;;;;5.45;1.00;;;18.60;57.00;;;;;;5054216;28;20013;-70
2021/12/09 08:17:12;;;;;;;6.28;1.42;;;18.60;57.00;;;;;;5054153;28;20026;-69
2021/12/09 08:19:38;;;;;;;3.40;1.00;;;18.60;56.90;;;;;;5054196;28;20104;-69
2021/12/09 08:22:03;;;;;;;4.70;1.20;;;18.60;57.00;;;;;;5054290;28;20105;-69
2021/12/09 08:24:29;;;;;;;2.83;1.50;;;18.60;57.00;;;;;;5052315;28;20395;-69
2021/12/09 08:26:55;;;;;;;3.58;1.23;;;18.50;56.90;;;;;;5054202;28;20025;-69
2021/12/09 08:29:20;;;;;;;3.13;1.30;;;18.60;57.00;;;;;;5054020;28;20476;-69
2021/12/09 08:31:46;;;;;;;5.35;1.33;;;18.60;56.90;;;;;;5053921;28;20044;-69
2021/12/09 08:34:11;;;;;;;2.35;1.10;;;18.60;56.90;;;;;;5036424;28;20025;-69
2021/12/09 08:36:37;;;;;;;3.95;1.33;;;18.60;56.90;;;;;;5053813;28;20517;-69
2021/12/09 08:39:03;;;;;;;6.03;1.27;;;18.60;56.90;;;;;;5053673;28;20032;-69
2021/12/09 08:41:29;;;;;;;3.28;1.00;;;18.60;56.90;;;;;;5053872;28;20035;-69
2021/12/09 08:43:55;;;;;;;1.45;0.73;;;18.60;56.90;;;;;;5052513;28;20492;-69
2021/12/09 08:46:20;;;;;;;5.03;0.98;;;18.60;56.90;;;;;;5053807;28;20530;-69
2021/12/09 08:48:46;;;;;;;4.70;1.17;;;18.60;56.80;;;;;;5052375;28;20128;-69
2021/12/09 08:51:12;;;;;;;4.03;1.17;;;18.60;56.80;;;;;;5052435;28;20056;-70
2021/12/09 08:53:38;;;;;;;2.22;1.23;;;18.60;56.80;;;;;;5035595;28;20052;-69
2021/12/09 08:56:04;;;;;;;2.20;0.88;;;18.60;56.80;;;;;;5053691;28;20017;-70
2021/12/09 08:58:30;;;;;;;2.13;1.05;;;18.60;56.80;;;;;;5034563;28;20052;-70
2021/12/09 09:00:57;;;;;;;2.38;0.70;;;18.60;56.80;;;;;;5053662;28;20052;-69
2021/12/09 09:03:24;;;;;;;4.00;1.20;;;18.60;56.80;;;;;;5035942;28;20494;-69
2021/12/09 09:12:42;;;;;;;4.60;1.00;;;18.60;56.70;;;;;;5053441;28;20040;-69
2021/12/09 09:15:10;;;;;;;3.42;1.02;;;18.60;56.90;;;;;;5053248;28;20071;-69
2021/12/09 09:17:36;;;;;;;1.40;0.82;;;18.60;56.90;;;;;;5050273;28;20048;-69
2021/12/09 09:20:04;;;;;;;4.55;0.98;;;18.50;56.80;;;;;;5052970;28;20056;-70
2021/12/09 09:22:29;;;;;;;2.10;0.50;;;18.60;56.80;;;;;;5052480;28;20021;-69
2021/12/09 09:24:55;;;;;;;2.90;1.02;;;18.60;56.80;;;;;;5052929;28;20056;-69
2021/12/09 09:27:20;;;;;;;2.50;1.13;;;18.60;56.90;;;;;;5051681;28;20017;-70
2021/12/09 09:29:46;;;;;;;1.77;0.88;;;18.60;56.80;;;;;;5052714;28;20029;-70
2021/12/09 09:32:12;;;;;;;3.08;0.77;;;18.60;56.80;;;;;;5053150;28;20017;-69
2021/12/09 09:34:38;;;;;;;1.88;0.63;;;18.60;56.80;;;;;;5051387;28;20469;-69
2021/12/09 09:37:04;;;;;;;1.95;0.68;;;18.60;56.80;;;;;;5051356;28;20092;-70
2021/12/09 09:39:31;;;;;;;2.40;0.80;;;18.60;56.80;;;;;;5051561;28;20102;-69
2021/12/09 09:42:18;;;;;;;2.40;0.75;;;18.60;56.70;;;;;;5052723;28;20029;-69
2021/12/09 09:44:54;;;;;;;0.98;0.55;;;18.60;56.80;;;;;;5051702;28;20031;-70
2021/12/09 09:47:24;;;;;;;1.83;0.65;;;18.60;56.80;;;;;;5052742;28;20025;-69
2021/12/09 09:49:50;;;;;;;4.53;0.95;;;18.60;56.80;;;;;;5051377;28;20017;-69
2021/12/09 09:52:15;;;;;;;1.98;0.88;;;18.60;56.70;;;;;;5034558;28;20035;-69
2021/12/09 09:54:41;;;;;;;2.05;0.60;;;18.60;56.70;;;;;;5051271;28;20074;-69
2021/12/09 09:57:08;;;;;;;2.35;0.80;;;18.60;56.70;;;;;;5052623;28;20376;-70
2021/12/09 09:59:34;;;;;;;1.00;0.63;;;18.60;56.80;;;;;;5051267;28;20031;-69
2021/12/09 10:02:00;;;;;;;1.42;0.80;;;18.60;56.70;;;;;;5051259;28;20036;-69
2021/12/09 10:04:33;;;;;;;2.67;0.60;;;18.60;56.80;;;;;;5051229;28;20494;-69
2021/12/09 10:06:59;;;;;;;1.00;0.55;;;18.60;56.70;;;;;;5035313;28;20074;-70
2021/12/09 10:09:24;;;;;;;1.60;0.85;;;18.60;56.70;;;;;;5050811;28;20041;-69
2021/12/09 10:11:50;;;;;;;1.63;0.70;;;18.60;56.70;;;;;;5050933;28;20510;-69
2021/12/09 10:14:20;;;;;;;2.40;0.73;;;18.60;56.70;;;;;;5052584;28;20415;-69
2021/12/09 10:16:59;;;;;;;1.80;0.60;;;18.60;56.70;;;;;;5052433;28;20032;-69
2021/12/09 10:19:24;;;;;;;2.55;0.82;;;18.60;56.70;;;;;;5051375;28;20115;-69
2021/12/09 10:21:51;;;;;;;1.17;0.70;;;18.60;56.70;;;;;;5051715;28;20100;-70
2021/12/09 10:24:17;;;;;;;2.30;0.80;;;18.60;56.70;;;;;;5034535;28;20045;-70
2021/12/09 10:26:47;;;;;;;0.70;0.52;;;18.60;56.70;;;;;;5050808;28;20029;-70
2021/12/09 10:29:31;;;;;;;1.10;0.60;;;18.60;56.60;;;;;;5050942;28;20438;-69
2021/12/09 10:32:02;;;;;;;1.67;0.60;;;18.60;56.70;;;;;;5051046;28;20064;-69
2021/12/09 10:34:34;;;;;;;0.70;0.40;;;18.60;56.70;;;;;;5051011;28;20394;-69
2021/12/09 10:37:02;;;;;;;2.00;0.63;;;18.60;56.70;;;;;;5051814;28;20021;-69
2021/12/09 10:39:33;;;;;;;0.98;0.50;;;18.60;56.70;;;;;;5052042;28;20048;-69
2021/12/09 10:42:05;;;;;;;1.15;0.70;;;18.60;56.60;;;;;;5051847;28;20078;-70
2021/12/09 10:44:40;;;;;;;1.00;0.50;;;18.60;56.60;;;;;;5051905;28;20067;-70
2021/12/09 10:47:22;;;;;;;2.67;0.60;;;18.60;56.60;;;;;;5052131;28;20080;-70
2021/12/09 10:49:54;;;;;;;0.98;0.40;;;18.60;56.60;;;;;;5050495;28;20036;-69
2021/12/09 10:52:26;;;;;;;0.98;0.40;;;18.60;56.70;;;;;;5051920;28;20085;-69
2021/12/09 10:54:52;;;;;;;0.70;0.63;;;18.60;56.70;;;;;;5034571;28;20074;-69
2021/12/09 10:57:31;;;;;;;0.80;0.65;;;18.60;56.60;;;;;;5050746;28;20104;-69
2021/12/09 10:59:57;;;;;;;0.52;0.40;;;18.60;56.60;;;;;;5051709;28;20025;-70
2021/12/09 11:02:23;;;;;;;1.30;0.70;;;18.60;56.60;;;;;;5034492;28;20028;-69
2021/12/09 11:05:06;;;;;;;0.95;0.43;;;18.60;56.60;;;;;;5051407;28;20013;-69
2021/12/09 11:07:32;;;;;;;1.13;0.50;;;18.60;56.50;;;;;;5050532;28;20108;-69
2021/12/09 11:10:26;;;;;;;1.08;0.60;;;18.60;56.60;;;;;;5051548;28;20163;-69
2021/12/09 11:12:56;;;;;;;0.93;0.40;;;18.60;56.50;;;;;;5050649;28;20429;-70
2021/12/09 11:15:42;;;;;;;0.45;0.38;;;18.60;56.60;;;;;;5051723;28;20539;-70
2021/12/09 11:18:34;;;;;;;0.30;0.30;;;18.60;56.60;;;;;;5051818;28;20021;-69
2021/12/09 11:21:03;;;;;;;1.08;0.38;;;18.60;56.60;;;;;;5051982;28;20021;-69
2021/12/09 11:24:00;;;;;;;1.48;0.60;;;18.60;56.70;;;;;;5054133;28;20105;-69
2021/12/09 11:26:30;;;;;;;0.82;0.45;;;18.60;56.50;;;;;;5055161;28;20024;-69
2021/12/09 11:28:59;;;;;;;0.35;0.35;;;18.60;56.60;;;;;;5055191;28;20112;-69
2021/12/09 11:31:27;;;;;;;1.30;0.60;;;18.60;56.60;;;;;;5054412;28;20013;-69
2021/12/09 11:33:59;;;;;;;0.90;0.60;;;18.60;56.60;;;;;;5054785;28;20020;-69
2021/12/09 11:36:45;;;;;;;1.33;0.60;;;18.60;56.60;;;;;;5054101;28;20031;-69
2021/12/09 11:39:22;;;;;;;1.40;0.50;;;18.60;56.50;;;;;;5055138;28;20064;-69
2021/12/09 11:41:49;;;;;;;0.95;0.40;;;18.60;56.60;;;;;;5038793;28;20025;-69
2021/12/09 11:44:15;;;;;;;1.27;0.50;;;18.60;56.60;;;;;;5055002;28;20029;-70
2021/12/09 11:46:43;;;;;;;1.30;0.57;;;18.60;56.60;;;;;;5055122;28;20036;-70
2021/12/09 11:49:09;;;;;;;1.30;0.45;;;18.60;56.50;;;;;;5053334;28;20063;-69
2021/12/09 11:51:35;;;;;;;1.23;0.63;;;18.60;56.50;;;;;;5054949;28;20040;-69
2021/12/09 11:54:01;;;;;;;0.63;0.40;;;18.60;56.50;;;;;;5054791;28;20383;-69
2021/12/09 11:56:37;;;;;;;0.50;0.43;;;18.60;56.40;;;;;;5053779;28;20025;-69
2021/12/09 12:12:37;;;;;;;0.30;0.30;;;18.60;56.50;;;;;;5054646;28;20024;-69
2021/12/09 12:18:10;;;;;;;0.90;0.40;;;18.60;56.30;;;;;;5054038;28;20020;-69
2021/12/09 12:20:42;;;;;;;0.88;0.35;;;18.60;56.40;;;;;;5054313;28;20025;-70
2021/12/09 12:23:40;;;;;;;0.45;0.30;;;18.60;56.50;;;;;;5054144;28;20036;-70
2021/12/09 12:28:55;;;;;;;0.52;0.40;;;18.60;56.50;;;;;;5054088;28;20071;-69
2021/12/09 12:40:26;;;;;;;0.40;0.40;;;18.60;56.40;;;;;;5027763;28;20376;-69
2021/12/09 12:51:19;;;;;;;0.57;0.40;;;18.60;56.40;;;;;;5031649;28;20032;-70
2021/12/09 12:54:07;;;;;;;1.08;0.30;;;18.60;56.40;;;;;;5031142;28;20156;-69
2021/12/09 12:56:45;;;;;;;1.45;0.30;;;18.60;56.50;;;;;;5031669;28;20059;-69
2021/12/09 12:59:15;;;;;;;0.95;0.40;;;18.60;56.40;;;;;;5031453;28;20052;-69
2021/12/09 13:11:06;;;;;;;0.20;0.20;;;18.60;56.40;;;;;;5032075;28;20509;-69
2021/12/09 13:13:46;;;;;;;0.40;0.30;;;18.60;56.40;;;;;;5053404;28;20482;-69
2021/12/09 13:16:21;;;;;;;0.50;0.40;;;18.60;56.50;;;;;;5051696;28;20482;-69
2021/12/09 13:19:10;;;;;;;0.40;0.40;;;18.50;56.40;;;;;;5053381;28;20103;-70
2021/12/09 13:21:44;;;;;;;0.63;0.50;;;18.60;56.50;;;;;;5053329;28;20103;-69
2021/12/09 13:24:26;;;;;;;0.63;0.28;;;18.60;56.40;;;;;;5052845;28;20049;-70
2021/12/09 13:27:17;;;;;;;0.40;0.40;;;18.60;56.40;;;;;;5053034;28;20441;-69
2021/12/09 13:30:02;;;;;;;0.20;0.20;;;18.60;56.30;;;;;;5052601;28;20029;-69
2021/12/09 13:36:21;;;;;;;0.50;0.50;;;18.60;56.20;;;;;;5011271;28;20400;-69
2021/12/09 13:49:58;;;;;;;0.63;0.47;;;18.60;56.40;;;;;;4967185;28;20046;-69
2021/12/09 13:55:16;;;;;;;0.45;0.30;;;18.50;56.40;;;;;;4995605;28;20037;-70
2021/12/09 13:57:58;;;;;;;0.30;0.22;;;18.60;56.40;;;;;;4994424;28;20029;-69
2021/12/09 14:00:27;;;;;;;0.22;0.22;;;18.50;56.30;;;;;;4994344;28;20046;-69
2021/12/09 14:02:55;;;;;;;0.20;0.20;;;18.50;56.30;;;;;;5010841;28;20037;-69
2021/12/09 14:05:21;;;;;;;0.45;0.20;;;18.60;56.30;;;;;;5010659;28;20057;-69